Time;durP1;ratioP1;P1;durP2;ratioP2;P2;SDS_P1;SDS_P2;PMS_P1;PMS_P2;Temp;Humidity;BMP_temperature;BMP_pressure;BME280_temperature;BME280_humidity;BME280_pressure;Samples;Min_cycle;Max_cycle;Signal;HPM_P1;HPM_P2
2021/05/28 00:02:17;;;;;;;6.30;2.30;;;;;;;11.39;77.35;101259.13;5114211;28;20248;-79
2021/05/28 00:04:43;;;;;;;5.07;2.17;;;;;;;11.40;77.58;101258.16;5101421;28;20205;-80
2021/05/28 00:07:09;;;;;;;4.70;2.40;;;;;;;11.41;77.33;101259.88;5100501;28;20696;-79
2021/05/28 00:09:36;;;;;;;5.80;2.13;;;;;;;11.40;77.35;101252.84;5088644;28;20204;-80
2021/05/28 00:12:03;;;;;;;3.67;2.33;;;;;;;11.39;77.59;101261.78;5085271;28;20202;-79
2021/05/28 00:14:29;;;;;;;3.73;2.17;;;;;;;11.40;77.55;101262.63;5087813;28;20196;-78
2021/05/28 00:16:56;;;;;;;5.13;2.60;;;;;;;11.39;77.49;101272.44;5087153;28;20696;-78
2021/05/28 00:19:22;;;;;;;2.67;2.10;;;;;;;11.38;77.51;101281.41;5093890;28;20211;-79
2021/05/28 00:21:48;;;;;;;4.77;1.90;;;;;;;11.36;77.58;101282.41;5081320;28;20251;-78
2021/05/28 00:24:14;;;;;;;5.20;2.07;;;;;;;11.36;77.68;101279.75;5086539;28;20207;-78
2021/05/28 00:26:41;;;;;;;4.80;2.17;;;;;;;11.34;77.53;101290.50;5086835;28;20257;-78
2021/05/28 00:29:07;;;;;;;5.57;2.20;;;;;;;11.33;77.79;101279.91;5091055;28;20685;-78
2021/05/28 00:31:33;;;;;;;6.97;2.60;;;;;;;11.31;77.62;101289.81;5089038;28;20208;-78
2021/05/28 00:33:59;;;;;;;2.60;1.90;;;;;;;11.30;77.77;101285.41;5086116;28;20258;-77
2021/05/28 00:36:25;;;;;;;5.13;2.20;;;;;;;11.29;77.59;101291.69;5089635;28;20604;-78
2021/05/28 00:38:52;;;;;;;3.43;2.30;;;;;;;11.28;77.93;101287.34;5088343;28;20226;-78
2021/05/28 00:41:18;;;;;;;5.83;2.40;;;;;;;11.26;77.81;101291.91;5076009;28;20640;-77
2021/05/28 00:43:45;;;;;;;7.07;2.70;;;;;;;11.25;77.95;101295.50;5085609;28;20217;-79
2021/05/28 00:46:11;;;;;;;6.77;1.90;;;;;;;11.23;77.74;101292.94;5089828;28;20207;-77
2021/05/28 00:48:38;;;;;;;9.03;2.70;;;;;;;11.21;77.89;101294.81;5079097;28;20229;-77
2021/05/28 00:51:05;;;;;;;6.77;2.33;;;;;;;11.20;77.88;101300.22;5080281;28;20226;-78
2021/05/28 00:53:31;;;;;;;3.93;2.30;;;;;;;11.19;78.04;101304.69;5077871;28;20228;-77
2021/05/28 00:55:59;;;;;;;4.20;2.23;;;;;;;11.18;77.88;101299.44;5083060;28;20209;-78
2021/05/28 00:58:25;;;;;;;6.80;2.60;;;;;;;11.18;78.27;101304.78;5078915;28;20222;-78
2021/05/28 01:00:52;;;;;;;4.57;2.80;;;;;;;11.18;78.10;101310.13;5083586;28;20204;-78
2021/05/28 01:03:18;;;;;;;5.73;2.30;;;;;;;11.15;78.11;101321.81;5095217;28;20208;-80
2021/05/28 01:05:44;;;;;;;4.57;2.30;;;;;;;11.14;78.24;101318.28;5079697;28;20201;-78
2021/05/28 01:08:10;;;;;;;7.47;2.70;;;;;;;11.13;78.33;101319.22;5080867;28;20223;-78
2021/05/28 01:10:37;;;;;;;4.63;2.70;;;;;;;11.12;78.22;101322.81;5090449;28;20204;-80
2021/05/28 01:13:04;;;;;;;7.67;2.97;;;;;;;11.10;78.11;101322.06;5092729;28;20204;-79
2021/05/28 01:15:31;;;;;;;5.20;2.67;;;;;;;11.10;78.15;101330.06;5087518;28;20214;-79
2021/05/28 01:17:58;;;;;;;7.57;2.53;;;;;;;11.09;78.11;101323.03;5087340;28;20243;-81
2021/05/28 01:20:24;;;;;;;6.90;2.80;;;;;;;11.08;78.13;101329.28;5090668;28;20337;-80
2021/05/28 01:22:52;;;;;;;5.27;2.90;;;;;;;11.05;78.05;101332.13;5088354;28;20206;-80
2021/05/28 01:25:19;;;;;;;7.13;2.93;;;;;;;11.03;78.65;101333.16;5093436;28;20211;-80
2021/05/28 01:27:46;;;;;;;6.90;2.73;;;;;;;11.02;78.66;101342.09;5079113;28;20753;-80
2021/05/28 01:30:13;;;;;;;8.10;3.10;;;;;;;11.00;78.53;101339.50;5081563;28;20223;-80
2021/05/28 01:32:40;;;;;;;6.83;3.20;;;;;;;11.00;78.54;101338.63;5092369;28;20291;-79
2021/05/28 01:35:07;;;;;;;7.63;3.10;;;;;;;10.98;78.64;101348.53;5090761;28;20205;-78
2021/05/28 01:37:33;;;;;;;7.60;3.10;;;;;;;10.98;78.83;101351.19;5081342;28;20225;-78
2021/05/28 01:40:00;;;;;;;6.70;3.17;;;;;;;10.97;78.44;101349.47;5077056;28;20283;-78
2021/05/28 01:42:26;;;;;;;6.60;2.97;;;;;;;10.95;78.46;101349.53;5089188;28;20291;-79
2021/05/28 01:44:53;;;;;;;10.10;3.20;;;;;;;10.95;79.13;101357.53;5091895;28;20710;-79
2021/05/28 01:47:19;;;;;;;10.63;3.40;;;;;;;10.96;78.82;101361.06;5079903;28;20299;-79
2021/05/28 01:49:46;;;;;;;5.00;3.37;;;;;;;10.95;78.80;101368.19;5091123;28;20200;-79
2021/05/28 01:52:12;;;;;;;6.83;3.37;;;;;;;10.96;78.57;101353.94;5086917;28;20200;-79
2021/05/28 01:54:39;;;;;;;7.27;2.90;;;;;;;10.96;78.69;101367.25;5087159;28;20200;-79
2021/05/28 01:57:08;;;;;;;9.03;3.57;;;;;;;10.94;79.00;101366.47;5083433;28;20229;-79
2021/05/28 01:59:35;;;;;;;7.27;3.57;;;;;;;10.93;78.86;101366.56;5081433;28;20215;-79
2021/05/28 02:02:01;;;;;;;9.87;4.03;;;;;;;10.92;78.54;101370.19;5095566;28;20211;-81
2021/05/28 02:04:29;;;;;;;10.03;3.70;;;;;;;10.91;78.79;101371.13;5099820;28;20230;-81
2021/05/28 02:06:55;;;;;;;7.00;3.37;;;;;;;10.90;78.86;101358.75;5087780;28;20216;-81
2021/05/28 02:09:22;;;;;;;9.70;3.57;;;;;;;10.88;79.12;101366.81;5091991;28;20794;-81
2021/05/28 02:11:48;;;;;;;7.57;3.00;;;;;;;10.89;78.72;101375.69;5089800;28;20196;-80
2021/05/28 02:14:15;;;;;;;10.83;3.63;;;;;;;10.89;78.97;101373.88;5085966;28;20201;-80
2021/05/28 02:16:42;;;;;;;10.87;3.90;;;;;;;10.85;79.06;101374.97;5091987;28;20250;-79
2021/05/28 02:19:09;;;;;;;11.60;4.00;;;;;;;10.85;79.12;101371.44;5092694;28;20200;-79
2021/05/28 02:21:36;;;;;;;12.60;4.80;;;;;;;10.84;79.12;101370.59;5079981;28;20299;-79
2021/05/28 02:24:03;;;;;;;8.83;4.07;;;;;;;10.83;79.04;101379.50;5092934;28;20207;-79
2021/05/28 02:26:29;;;;;;;9.77;3.97;;;;;;;10.83;78.70;101381.31;5086015;28;20201;-79
2021/05/28 02:28:55;;;;;;;8.67;4.23;;;;;;;10.81;79.13;101381.41;5095775;28;20204;-78
2021/05/28 02:31:22;;;;;;;11.33;5.13;;;;;;;10.81;79.18;101375.22;5084700;28;20212;-79
2021/05/28 02:33:48;;;;;;;11.53;4.77;;;;;;;10.81;79.12;101378.72;5085929;28;20643;-78
2021/05/28 02:36:14;;;;;;;11.17;4.43;;;;;;;10.80;78.93;101385.00;5086593;28;20210;-77
2021/05/28 02:38:40;;;;;;;6.30;4.53;;;;;;;10.81;78.71;101386.72;5080871;28;20232;-78
2021/05/28 02:41:06;;;;;;;7.13;4.97;;;;;;;10.81;79.14;101381.41;5081184;28;20204;-78
2021/05/28 02:43:34;;;;;;;10.77;5.23;;;;;;;10.80;78.87;101379.69;5079287;28;20204;-78
2021/05/28 02:46:01;;;;;;;8.77;5.00;;;;;;;10.80;78.87;101385.00;5080443;28;20264;-78
2021/05/28 02:48:28;;;;;;;13.03;5.33;;;;;;;10.79;78.69;101393.94;5090847;28;20219;-77
2021/05/28 02:50:54;;;;;;;11.90;5.43;;;;;;;10.78;79.11;101389.53;5077484;28;20211;-78
2021/05/28 02:53:20;;;;;;;9.20;5.00;;;;;;;10.77;79.18;101396.69;5084986;28;20203;-78
2021/05/28 02:55:46;;;;;;;10.10;5.17;;;;;;;10.75;79.14;101395.03;5076609;28;20285;-78
2021/05/28 02:58:12;;;;;;;8.57;5.10;;;;;;;10.75;78.81;101390.56;5082009;28;20223;-77
2021/05/28 03:00:38;;;;;;;11.20;5.23;;;;;;;10.75;78.67;101403.88;5087184;28;20204;-79
2021/05/28 03:03:05;;;;;;;7.53;5.10;;;;;;;10.75;78.62;101398.56;5093255;28;20232;-79
2021/05/28 03:05:32;;;;;;;10.23;5.60;;;;;;;10.75;78.57;101411.00;5097537;28;20245;-79
2021/05/28 03:07:58;;;;;;;9.53;4.87;;;;;;;10.73;78.95;101405.78;5093175;28;20223;-79
2021/05/28 03:10:24;;;;;;;9.97;5.10;;;;;;;10.70;78.71;101413.06;5088772;28;20543;-78
2021/05/28 03:12:50;;;;;;;10.47;5.07;;;;;;;10.67;78.35;101418.56;5090513;28;20202;-78
2021/05/28 03:15:16;;;;;;;9.13;4.90;;;;;;;10.65;78.89;101412.44;5090783;28;20196;-78
2021/05/28 03:17:44;;;;;;;9.80;4.70;;;;;;;10.64;78.83;101413.38;5087256;28;20285;-79
2021/05/28 03:20:17;;;;;;;6.40;4.73;;;;;;;10.61;78.36;101417.06;5081235;28;20647;-78
2021/05/28 03:22:44;;;;;;;8.90;5.10;;;;;;;10.60;78.39;101418.00;5083573;28;20209;-78
2021/05/28 03:25:12;;;;;;;10.70;4.70;;;;;;;10.57;78.31;101414.66;5083347;28;20204;-78
2021/05/28 03:27:39;;;;;;;9.53;4.57;;;;;;;10.55;78.64;101428.06;5097886;28;20216;-78
2021/05/28 03:30:07;;;;;;;8.83;5.17;;;;;;;10.50;78.10;101430.06;5087570;28;20253;-78
2021/05/28 03:32:34;;;;;;;11.10;5.00;;;;;;;10.49;78.55;101435.47;5094148;28;20303;-78
2021/05/28 03:35:00;;;;;;;12.30;5.07;;;;;;;10.46;78.63;101427.63;5092086;28;20325;-78
2021/05/28 03:37:27;;;;;;;9.17;4.50;;;;;;;10.47;78.70;101437.34;5086583;28;20296;-78
2021/05/28 03:39:54;;;;;;;7.67;4.60;;;;;;;10.42;78.56;101435.78;5094242;28;20222;-77
2021/05/28 03:42:20;;;;;;;9.13;4.70;;;;;;;10.41;78.20;101436.72;5096842;28;20208;-80
2021/05/28 03:44:46;;;;;;;10.37;4.80;;;;;;;10.38;77.97;101442.22;5096828;28;20204;-79
2021/05/28 03:47:15;;;;;;;7.63;4.47;;;;;;;10.34;77.93;101437.97;5089862;28;20220;-80
2021/05/28 03:49:41;;;;;;;9.30;4.47;;;;;;;10.31;78.30;101423.94;5095445;28;20197;-80
2021/05/28 03:52:08;;;;;;;8.00;4.73;;;;;;;10.26;77.95;101425.97;5095196;28;20599;-80
2021/05/28 03:54:34;;;;;;;8.57;4.50;;;;;;;10.20;77.63;101427.16;5096696;28;20713;-79
2021/05/28 03:57:01;;;;;;;8.53;4.20;;;;;;;10.16;78.50;101430.88;5087566;28;20300;-79
2021/05/28 03:59:27;;;;;;;6.67;4.20;;;;;;;10.12;78.20;101420.44;5094252;28;20249;-78
2021/05/28 04:01:56;;;;;;;8.47;5.00;;;;;;;10.07;77.92;101425.97;5087947;28;20263;-79
2021/05/28 04:04:23;;;;;;;10.83;4.30;;;;;;;10.04;77.97;101429.66;5092840;28;20739;-80
2021/05/28 04:06:49;;;;;;;9.07;3.97;;;;;;;10.00;77.97;101428.09;5095682;28;20206;-80
2021/05/28 04:09:15;;;;;;;6.93;4.63;;;;;;;9.99;78.45;101430.84;5096811;28;20192;-79
2021/05/28 04:11:41;;;;;;;10.30;4.83;;;;;;;9.96;78.54;101421.19;5097460;28;20212;-79
2021/05/28 04:14:08;;;;;;;9.37;4.80;;;;;;;9.94;78.41;101430.19;5099178;28;20204;-80
2021/05/28 04:16:34;;;;;;;10.13;4.60;;;;;;;9.93;78.25;101434.63;5092382;28;20821;-79
2021/05/28 04:19:00;;;;;;;8.90;4.40;;;;;;;9.91;78.06;101433.00;5098897;28;20627;-78
2021/05/28 04:21:26;;;;;;;10.03;4.70;;;;;;;9.92;78.22;101440.03;5098093;28;20710;-80
2021/05/28 04:23:52;;;;;;;5.17;4.17;;;;;;;9.90;78.49;101450.75;5094308;28;20205;-80
2021/05/28 04:26:18;;;;;;;11.43;5.00;;;;;;;9.89;78.66;101449.03;5091286;28;20210;-80
2021/05/28 04:28:45;;;;;;;7.57;4.30;;;;;;;9.90;78.05;101447.22;5093408;28;20608;-78
2021/05/28 04:31:12;;;;;;;9.23;4.53;;;;;;;9.89;78.09;101451.69;5081217;28;20221;-80
2021/05/28 04:33:38;;;;;;;7.27;4.43;;;;;;;9.90;78.50;101447.22;5084965;28;20200;-80
2021/05/28 04:36:05;;;;;;;7.60;4.03;;;;;;;9.89;78.22;101448.16;5086912;28;20207;-80
2021/05/28 04:38:31;;;;;;;7.77;4.10;;;;;;;9.88;78.08;101454.41;5087743;28;20235;-80
2021/05/28 04:40:57;;;;;;;9.20;4.53;;;;;;;9.88;78.55;101457.06;5090672;28;20201;-80
2021/05/28 04:43:23;;;;;;;8.53;4.17;;;;;;;9.86;78.53;101457.16;5089157;28;20204;-79
2021/05/28 04:45:49;;;;;;;8.03;4.30;;;;;;;9.85;78.61;101460.78;5091145;28;20662;-81
2021/05/28 04:48:16;;;;;;;9.17;3.97;;;;;;;9.87;78.55;101460.66;5087381;28;20219;-79
2021/05/28 04:50:42;;;;;;;8.33;4.60;;;;;;;9.87;77.95;101461.53;5091548;28;20208;-79
2021/05/28 04:53:08;;;;;;;9.50;4.20;;;;;;;9.88;78.72;101465.06;5088798;28;20823;-78
2021/05/28 04:55:35;;;;;;;6.87;4.07;;;;;;;9.87;78.03;101464.19;5088559;28;20226;-78
2021/05/28 04:58:01;;;;;;;6.13;4.10;;;;;;;9.88;78.75;101478.34;5090486;28;20260;-80
2021/05/28 05:00:28;;;;;;;6.20;3.77;;;;;;;9.89;78.54;101478.28;5089741;28;20272;-78
2021/05/28 05:02:54;;;;;;;8.50;4.63;;;;;;;9.90;77.95;101482.69;5088745;28;20200;-80
2021/05/28 05:05:21;;;;;;;10.13;4.50;;;;;;;9.92;78.35;101482.59;5086327;28;20201;-80
2021/05/28 05:07:47;;;;;;;7.93;4.47;;;;;;;9.94;78.36;101489.59;5083153;28;20217;-79
2021/05/28 05:10:14;;;;;;;8.33;4.03;;;;;;;9.97;78.76;101484.13;5095184;28;20291;-77
2021/05/28 05:12:41;;;;;;;10.30;4.23;;;;;;;10.00;78.17;101486.66;5087491;28;20650;-81
2021/05/28 05:15:10;;;;;;;7.53;3.83;;;;;;;10.05;78.37;101492.59;5088859;28;20197;-81
2021/05/28 05:17:36;;;;;;;8.00;4.50;;;;;;;10.10;78.76;101489.72;5093710;28;20224;-80
2021/05/28 05:20:03;;;;;;;7.87;4.00;;;;;;;10.16;77.97;101486.75;5096669;28;20200;-81
2021/05/28 05:22:30;;;;;;;8.53;4.30;;;;;;;10.21;78.68;101492.75;5093713;28;20269;-80
2021/05/28 05:24:56;;;;;;;10.63;4.07;;;;;;;10.28;77.97;101498.66;5093466;28;20204;-81
2021/05/28 05:27:22;;;;;;;6.93;4.37;;;;;;;10.32;78.07;101497.56;5100014;28;20761;-79
2021/05/28 05:29:48;;;;;;;8.27;4.10;;;;;;;10.38;77.55;101498.13;5097829;28;20674;-81
2021/05/28 05:32:15;;;;;;;10.43;5.03;;;;;;;10.47;78.09;101511.91;5099903;28;20218;-80
2021/05/28 05:34:41;;;;;;;8.17;4.50;;;;;;;10.55;78.02;101517.75;5101817;28;20271;-80
2021/05/28 05:37:07;;;;;;;9.13;4.77;;;;;;;10.63;77.82;101512.88;5091896;28;20232;-79
2021/05/28 05:39:34;;;;;;;7.47;4.47;;;;;;;10.74;77.47;101519.44;5093660;28;20213;-78
2021/05/28 05:42:01;;;;;;;5.93;4.60;;;;;;;10.85;77.29;101523.34;5101958;28;20293;-79
2021/05/28 05:44:27;;;;;;;7.80;6.53;;;;;;;10.94;76.99;101522.84;5102272;28;20211;-79
2021/05/28 05:46:53;;;;;;;10.87;7.40;;;;;;;11.04;76.95;101525.00;5103262;28;20222;-79
2021/05/28 05:49:19;;;;;;;10.77;6.50;;;;;;;11.18;76.48;101513.59;5099398;28;20559;-80
2021/05/28 05:51:46;;;;;;;10.23;6.77;;;;;;;11.31;76.25;101519.16;5094812;28;20271;-79
2021/05/28 05:54:14;;;;;;;11.50;6.50;;;;;;;11.37;75.77;101535.69;5099449;28;20283;-81
2021/05/28 05:56:42;;;;;;;8.57;6.23;;;;;;;11.47;75.38;101528.94;5088604;28;20207;-79
2021/05/28 05:59:08;;;;;;;9.40;7.10;;;;;;;11.58;75.13;101533.72;5093533;28;20586;-80
2021/05/28 06:01:34;;;;;;;10.00;7.00;;;;;;;11.68;74.61;101534.91;5095417;28;20231;-80
2021/05/28 06:04:00;;;;;;;12.03;7.27;;;;;;;11.77;74.13;101526.47;5098603;28;20628;-81
2021/05/28 06:06:27;;;;;;;9.67;7.00;;;;;;;11.87;74.21;101531.28;5091072;28;20264;-81
2021/05/28 06:08:54;;;;;;;11.73;7.10;;;;;;;11.96;73.42;101529.00;5086850;28;20224;-80
2021/05/28 06:11:20;;;;;;;9.87;7.17;;;;;;;12.04;73.16;101528.56;5099452;28;20215;-81
2021/05/28 06:13:47;;;;;;;11.13;7.53;;;;;;;12.14;72.66;101529.78;5098523;28;20264;-82
2021/05/28 06:16:13;;;;;;;10.47;7.00;;;;;;;12.24;72.46;101538.13;5087939;28;20659;-81
2021/05/28 06:18:39;;;;;;;10.23;7.03;;;;;;;12.32;71.90;101538.56;5096033;28;20237;-81
2021/05/28 06:21:06;;;;;;;7.90;7.10;;;;;;;12.40;71.82;101534.50;5096009;28;20204;-79
2021/05/28 06:23:32;;;;;;;9.70;7.40;;;;;;;12.53;71.51;101542.69;5097953;28;20224;-79
2021/05/28 06:25:58;;;;;;;8.17;6.43;;;;;;;12.61;71.43;101547.59;5089744;28;20621;-79
2021/05/28 06:28:24;;;;;;;10.73;7.07;;;;;;;12.70;70.88;101547.94;5092546;28;20230;-79
2021/05/28 06:30:51;;;;;;;9.33;6.83;;;;;;;12.79;70.38;101551.88;5085537;28;20210;-79
2021/05/28 06:33:17;;;;;;;9.17;6.67;;;;;;;12.91;70.49;101555.63;5091896;28;20211;-81
2021/05/28 06:35:43;;;;;;;10.73;6.67;;;;;;;13.04;70.16;101557.50;5084501;28;20204;-80
2021/05/28 06:38:09;;;;;;;8.50;6.70;;;;;;;13.16;69.63;101559.47;5094143;28;20582;-81
2021/05/28 06:40:36;;;;;;;10.70;7.30;;;;;;;13.24;68.74;101563.53;5094428;28;20649;-81
2021/05/28 06:43:02;;;;;;;9.53;7.30;;;;;;;13.33;68.69;101565.63;5098950;28;20196;-81
2021/05/28 06:45:28;;;;;;;12.53;7.33;;;;;;;13.44;68.63;101563.16;5098548;28;20253;-80
2021/05/28 06:47:55;;;;;;;10.27;7.03;;;;;;;13.50;67.88;101557.44;5092841;28;20227;-81
2021/05/28 06:50:21;;;;;;;10.33;7.07;;;;;;;13.61;67.74;101563.00;5098803;28;20199;-81
2021/05/28 06:52:47;;;;;;;9.43;7.00;;;;;;;13.65;67.27;101569.88;5083601;28;20204;-80
2021/05/28 06:55:14;;;;;;;8.13;6.70;;;;;;;13.66;66.26;101565.38;5092391;28;20682;-81
2021/05/28 06:57:40;;;;;;;9.83;6.87;;;;;;;13.64;65.92;101568.16;5095986;28;20239;-81
2021/05/28 07:00:13;;;;;;;10.53;6.53;;;;;;;13.68;65.85;101566.16;5095461;28;20202;-80
2021/05/28 07:02:39;;;;;;;8.43;6.43;;;;;;;13.63;65.35;101565.56;5089582;28;20209;-81
2021/05/28 07:05:08;;;;;;;9.90;6.83;;;;;;;13.63;65.30;101561.06;5092265;28;20804;-79
2021/05/28 07:07:34;;;;;;;7.20;6.33;;;;;;;13.73;65.25;101558.72;5101938;28;20292;-79
2021/05/28 07:10:00;;;;;;;9.43;6.10;;;;;;;13.84;65.48;101570.47;5096373;28;20275;-79
2021/05/28 07:12:26;;;;;;;8.73;6.23;;;;;;;13.93;65.11;101579.75;5101994;28;20739;-79
2021/05/28 07:14:52;;;;;;;8.17;5.93;;;;;;;13.98;64.66;101568.72;5101348;28;20287;-78
2021/05/28 07:17:18;;;;;;;9.93;6.07;;;;;;;13.98;63.87;101566.91;5100271;28;20228;-79
2021/05/28 07:19:45;;;;;;;10.33;5.93;;;;;;;14.01;64.02;101571.22;5099540;28;20208;-79
2021/05/28 07:22:12;;;;;;;6.67;5.83;;;;;;;14.06;63.50;101563.75;5100527;28;20205;-79
2021/05/28 07:24:40;;;;;;;6.23;5.63;;;;;;;14.12;63.45;101566.06;5100720;28;20567;-78
2021/05/28 07:27:08;;;;;;;6.53;5.30;;;;;;;14.17;63.14;101566.59;5101048;28;20281;-78
2021/05/28 07:29:34;;;;;;;7.27;4.83;;;;;;;14.24;62.57;101559.91;5100684;28;20200;-78
2021/05/28 07:32:03;;;;;;;11.87;5.57;;;;;;;14.35;62.78;101565.44;5101032;28;20204;-78
2021/05/28 07:34:29;;;;;;;8.77;5.47;;;;;;;14.47;62.95;101564.69;5102022;28;20204;-79
2021/05/28 07:36:56;;;;;;;8.33;4.90;;;;;;;14.60;62.52;101572.78;5102037;28;20312;-79
2021/05/28 07:39:23;;;;;;;6.93;4.60;;;;;;;14.72;61.76;101558.56;5101165;28;20200;-78
2021/05/28 07:41:51;;;;;;;7.60;4.63;;;;;;;14.85;61.11;101554.13;5100881;28;20259;-78
2021/05/28 07:44:17;;;;;;;7.67;4.57;;;;;;;14.97;60.72;101556.94;5100898;28;20215;-77
2021/05/28 07:46:46;;;;;;;6.67;4.90;;;;;;;15.12;60.58;101554.06;5100485;28;20264;-79
2021/05/28 07:49:14;;;;;;;5.97;4.87;;;;;;;15.24;60.06;101555.91;5100739;28;20538;-78
2021/05/28 07:51:41;;;;;;;8.97;5.37;;;;;;;15.40;60.18;101558.41;5100665;28;20200;-78
2021/05/28 07:54:08;;;;;;;6.17;5.00;;;;;;;15.52;59.79;101562.94;5100417;28;20296;-78
2021/05/28 07:56:37;;;;;;;8.10;5.40;;;;;;;15.63;59.77;101555.00;5099743;28;20239;-79
2021/05/28 07:59:04;;;;;;;8.33;5.30;;;;;;;15.74;59.45;101556.09;5099782;28;20597;-79
2021/05/28 08:01:30;;;;;;;7.10;5.43;;;;;;;15.81;59.45;101544.78;5100386;28;20273;-78
2021/05/28 08:03:57;;;;;;;6.37;5.17;;;;;;;15.93;59.91;101553.81;5100572;28;20208;-78
2021/05/28 08:06:23;;;;;;;8.03;5.27;;;;;;;16.06;59.43;101551.97;5100546;28;20208;-78
2021/05/28 08:08:52;;;;;;;5.57;4.87;;;;;;;16.16;58.94;101546.78;5100027;28;20705;-78
2021/05/28 08:11:20;;;;;;;8.17;5.27;;;;;;;16.25;58.80;101552.34;5100036;28;20303;-78
2021/05/28 08:13:48;;;;;;;8.17;5.00;;;;;;;16.35;58.39;101548.97;5099688;28;20209;-79
2021/05/28 08:16:17;;;;;;;6.10;4.60;;;;;;;16.47;58.88;101545.41;5098975;28;20241;-79
2021/05/28 08:18:45;;;;;;;7.83;5.10;;;;;;;16.67;58.60;101551.03;5098659;28;20474;-79
2021/05/28 08:21:12;;;;;;;8.70;5.07;;;;;;;16.81;58.05;101555.41;5098330;28;20208;-78
2021/05/28 08:23:39;;;;;;;9.53;5.33;;;;;;;16.98;58.05;101559.50;5098462;28;20240;-79
2021/05/28 08:26:06;;;;;;;6.40;4.87;;;;;;;17.14;57.11;101556.50;5098288;28;20338;-79
2021/05/28 08:28:34;;;;;;;7.37;4.07;;;;;;;17.26;55.92;101558.25;5098100;28;20704;-79
2021/05/28 08:31:02;;;;;;;5.87;4.07;;;;;;;17.30;54.86;101557.03;5100150;28;20640;-79
2021/05/28 08:33:29;;;;;;;5.13;4.17;;;;;;;17.34;54.71;101558.53;5100526;28;20236;-78
2021/05/28 08:35:56;;;;;;;5.77;4.13;;;;;;;17.41;54.40;101557.06;5100577;28;20212;-79
2021/05/28 08:38:22;;;;;;;7.30;4.30;;;;;;;17.45;53.52;101561.25;5099992;28;20308;-79
2021/05/28 08:40:48;;;;;;;6.87;5.17;;;;;;;17.49;53.84;101560.03;5100188;28;20202;-79
2021/05/28 08:43:14;;;;;;;5.87;4.90;;;;;;;17.60;53.87;101556.47;5099958;28;20229;-79
2021/05/28 08:45:42;;;;;;;6.10;5.20;;;;;;;17.67;53.49;101564.00;5099767;28;20400;-79
2021/05/28 08:48:11;;;;;;;6.53;4.50;;;;;;;17.76;53.42;101562.41;5099573;28;20279;-79
2021/05/28 08:50:38;;;;;;;5.97;4.43;;;;;;;17.83;53.01;101552.00;5099535;28;20197;-79
2021/05/28 08:53:06;;;;;;;6.03;3.97;;;;;;;17.88;52.33;101558.75;5099816;28;20210;-79
2021/05/28 08:55:34;;;;;;;4.90;3.27;;;;;;;17.94;51.42;101558.25;5100040;28;20206;-79
2021/05/28 08:58:04;;;;;;;5.70;4.27;;;;;;;17.94;51.14;101557.41;5098559;28;20226;-79
2021/05/28 09:00:30;;;;;;;6.13;3.80;;;;;;;17.96;50.64;101558.13;5099244;28;20203;-79
2021/05/28 09:03:25;;;;;;;5.50;3.63;;;;;;;18.03;50.48;101557.53;5099501;28;20211;-79
2021/05/28 09:05:53;;;;;;;4.37;3.47;;;;;;;18.09;50.11;101561.59;5099336;28;20191;-78
2021/05/28 09:08:29;;;;;;;3.07;2.60;;;;;;;18.18;49.30;101549.19;5098830;28;20235;-79
2021/05/28 09:11:06;;;;;;;4.77;3.03;;;;;;;18.18;48.17;101551.88;5098826;28;20188;-79
2021/05/28 09:13:35;;;;;;;3.83;3.10;;;;;;;18.20;48.03;101549.91;5098451;28;20275;-79
2021/05/28 09:16:08;;;;;;;6.07;3.80;;;;;;;18.27;48.28;101554.66;5099421;28;20211;-79
2021/05/28 09:18:43;;;;;;;7.03;5.10;;;;;;;18.36;48.20;101558.47;5098574;28;20646;-79
2021/05/28 09:21:10;;;;;;;7.17;4.33;;;;;;;18.41;48.13;101560.81;5098928;28;20676;-79
2021/05/28 09:23:37;;;;;;;5.27;4.07;;;;;;;18.49;48.36;101551.09;5098774;28;20211;-79
2021/05/28 09:26:05;;;;;;;3.80;2.70;;;;;;;18.59;47.35;101556.63;5099386;28;20216;-79
2021/05/28 09:28:39;;;;;;;3.43;2.40;;;;;;;18.61;45.77;101554.66;5097481;28;20369;-79
2021/05/28 09:31:08;;;;;;;6.20;2.80;;;;;;;18.65;45.02;101556.09;5098328;28;20251;-79
2021/05/28 09:33:36;;;;;;;6.80;4.87;;;;;;;18.77;45.87;101567.72;5098454;28;20276;-79
2021/05/28 09:36:14;;;;;;;3.90;3.50;;;;;;;18.89;45.96;101566.69;5098517;28;20202;-79
2021/05/28 09:38:53;;;;;;;6.23;3.60;;;;;;;18.95;45.03;101566.19;5098100;28;20271;-79
2021/05/28 09:41:40;;;;;;;5.23;3.20;;;;;;;19.01;45.34;101569.22;5097354;28;20188;-79
2021/05/28 09:44:16;;;;;;;3.67;3.00;;;;;;;19.06;45.29;101572.41;5099215;28;20214;-79
2021/05/28 09:47:06;;;;;;;4.47;3.30;;;;;;;19.12;45.17;101572.88;5098284;28;20239;-79
2021/05/28 09:49:34;;;;;;;4.00;3.13;;;;;;;19.10;45.33;101580.25;5097510;28;20268;-79
2021/05/28 09:52:11;;;;;;;5.10;3.90;;;;;;;19.09;45.13;101579.38;5097678;28;20207;-79
2021/05/28 09:54:37;;;;;;;6.77;5.00;;;;;;;19.05;45.59;101572.53;5097915;28;20609;-79
2021/05/28 09:57:04;;;;;;;5.00;4.47;;;;;;;19.00;46.11;101572.03;5097794;28;20282;-79
2021/05/28 09:59:44;;;;;;;5.73;5.13;;;;;;;19.01;46.46;101568.34;5098102;28;20672;-78
2021/05/28 10:02:23;;;;;;;6.63;5.20;;;;;;;19.03;46.75;101574.50;5098107;28;20191;-79
2021/05/28 10:04:54;;;;;;;6.80;5.80;;;;;;;19.03;46.64;101572.66;5097238;28;20217;-79
2021/05/28 10:07:21;;;;;;;7.03;6.00;;;;;;;19.07;46.60;101571.41;5096387;28;20221;-79
2021/05/28 10:09:48;;;;;;;6.77;5.80;;;;;;;19.06;46.86;101575.09;5097353;28;20234;-78
2021/05/28 10:12:16;;;;;;;6.37;5.63;;;;;;;19.06;46.80;101577.78;5096973;28;20578;-79
2021/05/28 10:14:42;;;;;;;8.90;6.43;;;;;;;19.10;47.08;101581.09;5097379;28;20198;-79
2021/05/28 10:17:08;;;;;;;6.87;6.17;;;;;;;19.19;46.94;101587.56;5098734;28;20310;-79
2021/05/28 10:19:35;;;;;;;7.27;6.47;;;;;;;19.24;47.41;101580.78;5099418;28;20780;-79
2021/05/28 10:22:02;;;;;;;7.27;5.97;;;;;;;19.22;46.87;101577.34;5098564;28;20292;-79
2021/05/28 10:24:30;;;;;;;7.10;6.40;;;;;;;19.17;47.04;101582.28;5098799;28;20210;-79
2021/05/28 10:26:56;;;;;;;7.70;6.43;;;;;;;19.15;47.26;101583.41;5085234;28;20275;-79
2021/05/28 10:29:24;;;;;;;6.93;6.27;;;;;;;19.14;47.01;101579.00;5077599;28;20201;-79
2021/05/28 10:31:52;;;;;;;8.80;7.03;;;;;;;19.07;46.58;101586.75;5078130;28;20207;-78
2021/05/28 10:34:18;;;;;;;8.27;7.13;;;;;;;19.01;47.02;101584.56;5078051;28;20214;-79
2021/05/28 10:36:46;;;;;;;8.37;7.60;;;;;;;19.00;47.56;101585.53;5077241;28;20273;-79
2021/05/28 10:39:13;;;;;;;8.23;7.43;;;;;;;18.97;47.95;101578.59;5079563;28;20260;-79
2021/05/28 10:41:46;;;;;;;9.10;7.80;;;;;;;18.98;47.95;101580.31;5081830;28;20211;-83
2021/05/28 10:44:19;;;;;;;7.07;6.37;;;;;;;18.99;47.35;101575.72;5081581;28;20647;-83
2021/05/28 10:46:59;;;;;;;6.63;6.13;;;;;;;18.95;47.18;101577.00;5082362;28;20265;-83
2021/05/28 10:49:43;;;;;;;7.90;7.03;;;;;;;18.97;47.08;101580.44;5082054;28;20186;-83
2021/05/28 10:52:14;;;;;;;7.67;6.60;;;;;;;18.99;47.08;101570.31;5082495;28;20252;-83
2021/05/28 10:54:42;;;;;;;6.73;6.00;;;;;;;19.01;46.87;101571.06;5082026;28;20203;-83
2021/05/28 10:57:37;;;;;;;7.40;6.80;;;;;;;19.07;47.08;101570.56;5081166;28;20322;-83
2021/05/28 11:00:13;;;;;;;9.50;7.20;;;;;;;19.10;47.06;101561.34;5067651;28;20208;-83
2021/05/28 11:03:09;;;;;;;7.33;6.43;;;;;;;19.11;47.03;101563.91;5082582;28;20198;-83
2021/05/28 11:05:48;;;;;;;7.40;6.70;;;;;;;19.17;46.87;101574.19;5082660;28;20215;-83
2021/05/28 11:08:44;;;;;;;8.47;7.47;;;;;;;19.17;46.44;101568.78;5082306;28;20229;-83
2021/05/28 11:11:47;;;;;;;8.57;7.77;;;;;;;19.16;46.85;101580.59;5082337;28;20285;-83
2021/05/28 11:14:17;;;;;;;8.57;7.77;;;;;;;19.17;46.55;101573.34;5080970;28;20196;-82
2021/05/28 11:17:09;;;;;;;9.50;8.63;;;;;;;19.11;46.50;101569.31;5080695;28;20861;-83
2021/05/28 11:19:42;;;;;;;9.30;8.50;;;;;;;19.03;46.78;101567.25;5079981;28;20302;-82
2021/05/28 11:22:14;;;;;;;10.50;9.33;;;;;;;18.99;47.36;101565.78;5080551;28;20567;-83
2021/05/28 11:24:42;;;;;;;9.93;9.03;;;;;;;18.96;47.63;101562.50;5079948;28;20190;-82
2021/05/28 11:27:12;;;;;;;9.90;9.00;;;;;;;18.91;47.99;101568.28;5079820;28;20257;-82
2021/05/28 11:29:41;;;;;;;12.50;11.20;;;;;;;18.86;48.25;101566.94;5079309;28;20198;-83